Brunswick, New York
Current Conditions -  °F | °C
As of 12:51 AM on Monday 22 Dec 2014 (Local Time) from KALB Reporting Station
Overcast Overcast  
Wind Chill: -4°   Ceiling: 2700
Heat Index: -1°   Visibility: 10mi
Dew Point: -5°   Wind: 5mph
Humidity: 75%   Direction: 10°N
Pressure: 30.37"   Gusts: NA
Location:  42.7478°N, 73.6049°W
Report Text: KALB 220551Z 01004KT 10SM BKN027 OVC040 M01/M05 A3037 RMK AO2 SLP287 4/001 T10111050 11006 21011 58003
Loading
Personal Weather Stations






























Interactive Weather Map New forecast layout! Learn more

10-Day Weather Forecast

Advertisements
Track Severe Weather on mobile